TAY302 ENGM-ENRO
Flight info
| Callsign | TAY302 |
|---|---|
| Flight time | 0h 31m |
| Altitude | 20000 |
| Route | RIBBE DCT GIGNI |
| Aircraft | B462/M-SDFGIRWY/LB1 |
Departure
| Time | 2026-05-05 16:54 |
|---|---|
| Airport | Oslo-Gardermoen International Airport (ENGM) |
Arrival
| Time | 2026-05-05 17:26 |
|---|---|
| Airport | Røros Airport (ENRO) |
| Time | Latitude | Longitude | Altitude | Speed | Heading |
|---|---|---|---|---|---|
| 2026-05-05 16:20 | 60.19205 | 11.08527 | 676 ft | 0 kts | 106° |
| 2026-05-05 16:43 | 60.19210 | 11.08489 | 671 ft | 4 kts | 106° |
| 2026-05-05 16:43 | 60.19217 | 11.08444 | 672 ft | 2 kts | 106° |
| 2026-05-05 16:44 | 60.19226 | 11.08398 | 672 ft | 4 kts | 125° |
| 2026-05-05 16:44 | 60.19246 | 11.08370 | 673 ft | 4 kts | 179° |
| 2026-05-05 16:44 | 60.19270 | 11.08381 | 671 ft | 4 kts | 196° |
| 2026-05-05 16:44 | 60.19286 | 11.08390 | 673 ft | 0 kts | 196° |
| 2026-05-05 16:50 | 60.19264 | 11.08378 | 672 ft | 6 kts | 196° |
| 2026-05-05 16:50 | 60.19195 | 11.08337 | 673 ft | 14 kts | 196° |
| 2026-05-05 16:51 | 60.19085 | 11.08274 | 673 ft | 18 kts | 196° |
| 2026-05-05 16:51 | 60.18963 | 11.08203 | 672 ft | 19 kts | 196° |
| 2026-05-05 16:51 | 60.18832 | 11.08128 | 671 ft | 20 kts | 196° |
| 2026-05-05 16:51 | 60.18693 | 11.08048 | 670 ft | 21 kts | 196° |
| 2026-05-05 16:52 | 60.18547 | 11.07964 | 669 ft | 22 kts | 196° |
| 2026-05-05 16:52 | 60.18398 | 11.07877 | 668 ft | 20 kts | 196° |
| 2026-05-05 16:52 | 60.18353 | 11.07719 | 665 ft | 15 kts | 279° |
| 2026-05-05 16:52 | 60.18428 | 11.07586 | 663 ft | 16 kts | 325° |
| 2026-05-05 16:53 | 60.18525 | 11.07449 | 665 ft | 19 kts | 326° |
| 2026-05-05 16:53 | 60.18651 | 11.07461 | 666 ft | 21 kts | 16° |
| 2026-05-05 16:53 | 60.18911 | 11.07610 | 668 ft | 72 kts | 16° |
| 2026-05-05 16:53 | 60.19636 | 11.08025 | 674 ft | 142 kts | 14° |
| 2026-05-05 16:54 | 60.20707 | 11.08683 | 913 ft | 177 kts | 15° |
| 2026-05-05 16:54 | 60.21940 | 11.09512 | 1484 ft | 194 kts | 16° |
| 2026-05-05 16:54 | 60.23232 | 11.10437 | 2225 ft | 200 kts | 15° |
| 2026-05-05 16:54 | 60.24549 | 11.11428 | 2886 ft | 207 kts | 15° |
| 2026-05-05 16:55 | 60.25988 | 11.12506 | 3398 ft | 238 kts | 17° |
| 2026-05-05 16:55 | 60.27659 | 11.13741 | 3940 ft | 272 kts | 17° |
| 2026-05-05 16:55 | 60.29518 | 11.15123 | 4650 ft | 296 kts | 17° |
| 2026-05-05 16:55 | 60.31530 | 11.16178 | 5419 ft | 295 kts | 360° |
| 2026-05-05 16:56 | 60.33436 | 11.15440 | 6070 ft | 269 kts | 330° |
| 2026-05-05 16:56 | 60.34875 | 11.13247 | 6585 ft | 257 kts | 316° |
| 2026-05-05 16:56 | 60.36304 | 11.11085 | 7033 ft | 258 kts | 334° |
| 2026-05-05 16:56 | 60.38091 | 11.10708 | 7547 ft | 271 kts | 8° |
| 2026-05-05 16:57 | 60.39874 | 11.12142 | 8143 ft | 280 kts | 19° |
| 2026-05-05 16:57 | 60.41759 | 11.12922 | 8757 ft | 278 kts | 357° |
| 2026-05-05 16:57 | 60.43048 | 11.12944 | 9192 ft | 283 kts | 360° |
| 2026-05-05 16:57 | 60.45051 | 11.13352 | 9883 ft | 294 kts | 4° |
| 2026-05-05 16:58 | 60.47082 | 11.13936 | 10557 ft | 298 kts | 4° |
| 2026-05-05 16:58 | 60.49157 | 11.14486 | 11234 ft | 303 kts | 3° |
| 2026-05-05 16:58 | 60.51263 | 11.14986 | 11951 ft | 305 kts | 2° |
| 2026-05-05 16:58 | 60.53380 | 11.15474 | 12695 ft | 307 kts | 2° |
| 2026-05-05 16:59 | 60.55511 | 11.15937 | 13429 ft | 309 kts | 2° |
| 2026-05-05 16:59 | 60.57659 | 11.16396 | 14031 ft | 312 kts | 2° |
| 2026-05-05 16:59 | 60.59823 | 11.16867 | 14640 ft | 313 kts | 2° |
| 2026-05-05 16:59 | 60.61998 | 11.17364 | 15171 ft | 316 kts | 2° |
| 2026-05-05 17:00 | 60.64196 | 11.17861 | 15678 ft | 319 kts | 1° |
| 2026-05-05 17:00 | 60.66409 | 11.18337 | 16169 ft | 321 kts | 1° |
| 2026-05-05 17:00 | 60.68642 | 11.18825 | 16636 ft | 324 kts | 1° |
| 2026-05-05 17:00 | 60.70890 | 11.19327 | 17088 ft | 326 kts | 1° |
| 2026-05-05 17:01 | 60.73152 | 11.19833 | 17543 ft | 328 kts | 0° |
| 2026-05-05 17:01 | 60.75436 | 11.20308 | 17980 ft | 331 kts | 0° |
| 2026-05-05 17:01 | 60.77732 | 11.20785 | 18363 ft | 333 kts | 0° |
| 2026-05-05 17:01 | 60.80049 | 11.21285 | 18706 ft | 337 kts | 0° |
| 2026-05-05 17:02 | 60.82389 | 11.21818 | 19052 ft | 340 kts | 360° |
| 2026-05-05 17:02 | 60.84748 | 11.22340 | 19389 ft | 343 kts | 359° |
| 2026-05-05 17:02 | 60.87133 | 11.22879 | 19696 ft | 348 kts | 1° |
| 2026-05-05 17:02 | 60.89572 | 11.23392 | 19798 ft | 357 kts | 0° |
| 2026-05-05 17:03 | 60.92085 | 11.23907 | 19841 ft | 369 kts | 1° |
| 2026-05-05 17:03 | 60.94666 | 11.24474 | 19861 ft | 377 kts | 1° |
| 2026-05-05 17:03 | 60.97297 | 11.25057 | 19874 ft | 382 kts | 1° |
| 2026-05-05 17:03 | 60.99957 | 11.25656 | 19870 ft | 385 kts | 1° |
| 2026-05-05 17:04 | 61.02593 | 11.26251 | 19861 ft | 378 kts | 1° |
| 2026-05-05 17:04 | 61.05184 | 11.26850 | 19856 ft | 372 kts | 1° |
| 2026-05-05 17:04 | 61.07734 | 11.27441 | 19854 ft | 366 kts | 1° |
| 2026-05-05 17:04 | 61.10246 | 11.27994 | 19848 ft | 360 kts | 0° |
| 2026-05-05 17:05 | 61.12735 | 11.28520 | 19847 ft | 359 kts | 0° |
| 2026-05-05 17:05 | 61.15215 | 11.29074 | 19846 ft | 358 kts | 1° |
| 2026-05-05 17:05 | 61.17685 | 11.29638 | 19851 ft | 356 kts | 0° |
| 2026-05-05 17:05 | 61.20149 | 11.30158 | 19851 ft | 356 kts | 0° |
| 2026-05-05 17:06 | 61.22616 | 11.30711 | 19861 ft | 358 kts | 1° |
| 2026-05-05 17:06 | 61.25097 | 11.31293 | 19861 ft | 359 kts | 1° |
| 2026-05-05 17:06 | 61.27581 | 11.31865 | 19868 ft | 360 kts | 0° |
| 2026-05-05 17:06 | 61.30085 | 11.32403 | 19877 ft | 362 kts | 1° |
| 2026-05-05 17:07 | 61.32596 | 11.32987 | 19879 ft | 364 kts | 1° |
| 2026-05-05 17:07 | 61.35087 | 11.33572 | 19460 ft | 362 kts | 1° |
| 2026-05-05 17:07 | 61.37597 | 11.34118 | 19085 ft | 361 kts | 1° |
| 2026-05-05 17:07 | 61.40070 | 11.34659 | 18697 ft | 353 kts | 2° |
| 2026-05-05 17:08 | 61.42483 | 11.35201 | 18316 ft | 345 kts | 2° |
| 2026-05-05 17:08 | 61.44849 | 11.35721 | 17927 ft | 338 kts | 4° |
| 2026-05-05 17:08 | 61.47137 | 11.36236 | 17506 ft | 332 kts | 4° |
| 2026-05-05 17:08 | 61.49414 | 11.36762 | 17075 ft | 326 kts | 4° |
| 2026-05-05 17:09 | 61.51656 | 11.37295 | 16652 ft | 323 kts | 4° |
| 2026-05-05 17:09 | 61.53876 | 11.37829 | 16241 ft | 321 kts | 4° |
| 2026-05-05 17:09 | 61.56108 | 11.38326 | 15842 ft | 324 kts | 3° |
| 2026-05-05 17:09 | 61.58358 | 11.38836 | 15446 ft | 327 kts | 4° |
| 2026-05-05 17:10 | 61.60590 | 11.39369 | 15074 ft | 328 kts | 4° |
| 2026-05-05 17:10 | 61.62864 | 11.39894 | 14695 ft | 329 kts | 4° |
| 2026-05-05 17:10 | 61.65146 | 11.40394 | 14319 ft | 329 kts | 4° |
| 2026-05-05 17:10 | 61.67412 | 11.40931 | 13930 ft | 325 kts | 4° |
| 2026-05-05 17:11 | 61.69645 | 11.41448 | 13530 ft | 320 kts | 3° |
| 2026-05-05 17:11 | 61.71844 | 11.41940 | 13113 ft | 316 kts | 3° |
| 2026-05-05 17:11 | 61.74020 | 11.42425 | 12691 ft | 314 kts | 3° |
| 2026-05-05 17:11 | 61.76184 | 11.42912 | 12297 ft | 312 kts | 4° |
| 2026-05-05 17:12 | 61.78337 | 11.43428 | 11884 ft | 311 kts | 4° |
| 2026-05-05 17:12 | 61.80478 | 11.43958 | 11478 ft | 309 kts | 4° |
| 2026-05-05 17:12 | 61.82606 | 11.44460 | 11085 ft | 307 kts | 3° |
| 2026-05-05 17:12 | 61.84725 | 11.44938 | 10686 ft | 305 kts | 3° |
| 2026-05-05 17:13 | 61.86820 | 11.45409 | 10334 ft | 301 kts | 3° |
| 2026-05-05 17:13 | 61.88882 | 11.45879 | 10086 ft | 294 kts | 3° |
| 2026-05-05 17:13 | 61.90884 | 11.46335 | 9971 ft | 284 kts | 3° |
| 2026-05-05 17:13 | 61.92829 | 11.46781 | 9918 ft | 281 kts | 3° |
| 2026-05-05 17:14 | 61.94778 | 11.47237 | 9905 ft | 282 kts | 3° |
| 2026-05-05 17:14 | 61.96703 | 11.47688 | 9885 ft | 282 kts | 3° |
| 2026-05-05 17:14 | 61.98672 | 11.48151 | 9879 ft | 281 kts | 3° |
| 2026-05-05 17:14 | 62.00608 | 11.48691 | 9873 ft | 281 kts | 7° |
| 2026-05-05 17:15 | 62.02526 | 11.49485 | 9841 ft | 280 kts | 8° |
| 2026-05-05 17:15 | 62.04435 | 11.50351 | 9703 ft | 280 kts | 9° |
| 2026-05-05 17:15 | 62.06329 | 11.51256 | 9527 ft | 278 kts | 10° |
| 2026-05-05 17:15 | 62.08212 | 11.52152 | 9323 ft | 277 kts | 10° |
| 2026-05-05 17:16 | 62.10089 | 11.53052 | 9120 ft | 276 kts | 10° |
| 2026-05-05 17:16 | 62.11962 | 11.53943 | 8943 ft | 275 kts | 10° |
| 2026-05-05 17:16 | 62.13829 | 11.54804 | 8756 ft | 275 kts | 9° |
| 2026-05-05 17:16 | 62.15690 | 11.55656 | 8648 ft | 271 kts | 9° |
| 2026-05-05 17:17 | 62.17518 | 11.56489 | 8609 ft | 266 kts | 9° |
| 2026-05-05 17:17 | 62.19327 | 11.57130 | 8569 ft | 262 kts | 5° |
| 2026-05-05 17:17 | 62.21135 | 11.57579 | 8459 ft | 261 kts | 4° |
| 2026-05-05 17:17 | 62.22942 | 11.57963 | 8230 ft | 260 kts | 3° |
| 2026-05-05 17:18 | 62.24741 | 11.58318 | 7997 ft | 259 kts | 2° |
| 2026-05-05 17:18 | 62.26527 | 11.58668 | 7753 ft | 258 kts | 3° |
| 2026-05-05 17:18 | 62.28310 | 11.59041 | 7496 ft | 257 kts | 3° |
| 2026-05-05 17:18 | 62.30084 | 11.59413 | 7260 ft | 256 kts | 3° |
| 2026-05-05 17:19 | 62.31852 | 11.59791 | 7035 ft | 255 kts | 3° |
| 2026-05-05 17:19 | 62.33610 | 11.60179 | 6796 ft | 254 kts | 3° |
| 2026-05-05 17:19 | 62.35362 | 11.60596 | 6595 ft | 252 kts | 3° |
| 2026-05-05 17:19 | 62.37088 | 11.61029 | 6477 ft | 247 kts | 3° |
| 2026-05-05 17:20 | 62.38760 | 11.61605 | 6432 ft | 241 kts | 10° |
| 2026-05-05 17:20 | 62.40355 | 11.62564 | 6221 ft | 241 kts | 13° |
| 2026-05-05 17:20 | 62.41952 | 11.63655 | 5988 ft | 240 kts | 14° |
| 2026-05-05 17:20 | 62.43537 | 11.64778 | 5654 ft | 239 kts | 15° |
| 2026-05-05 17:21 | 62.45119 | 11.65802 | 5340 ft | 234 kts | 4° |
| 2026-05-05 17:21 | 62.46647 | 11.65309 | 5005 ft | 215 kts | 329° |
| 2026-05-05 17:21 | 62.47676 | 11.63263 | 4775 ft | 190 kts | 310° |
| 2026-05-05 17:22 | 62.49150 | 11.59245 | 4606 ft | 150 kts | 307° |
| 2026-05-05 17:22 | 62.49724 | 11.57524 | 4611 ft | 137 kts | 307° |
| 2026-05-05 17:22 | 62.50288 | 11.55829 | 4617 ft | 142 kts | 307° |
| 2026-05-05 17:22 | 62.50875 | 11.54085 | 4661 ft | 144 kts | 307° |
| 2026-05-05 17:23 | 62.51492 | 11.52276 | 4438 ft | 155 kts | 307° |
| 2026-05-05 17:23 | 62.52139 | 11.50394 | 4185 ft | 157 kts | 308° |
| 2026-05-05 17:23 | 62.52799 | 11.48499 | 3933 ft | 157 kts | 308° |
| 2026-05-05 17:23 | 62.53450 | 11.46636 | 3605 ft | 154 kts | 307° |
| 2026-05-05 17:24 | 62.54084 | 11.44785 | 3277 ft | 153 kts | 306° |
| 2026-05-05 17:24 | 62.54658 | 11.42909 | 3083 ft | 144 kts | 303° |
| 2026-05-05 17:24 | 62.55173 | 11.41097 | 2849 ft | 138 kts | 303° |
| 2026-05-05 17:24 | 62.55703 | 11.39367 | 2596 ft | 134 kts | 308° |
| 2026-05-05 17:25 | 62.56286 | 11.37868 | 2430 ft | 127 kts | 314° |
| 2026-05-05 17:25 | 62.56692 | 11.37002 | 2342 ft | 122 kts | 315° |
| 2026-05-05 17:25 | 62.57494 | 11.35360 | 2157 ft | 115 kts | 313° |
| 2026-05-05 17:25 | 62.58019 | 11.34244 | 2060 ft | 89 kts | 316° |
| 2026-05-05 17:26 | 62.58347 | 11.33576 | 2059 ft | 41 kts | 316° |
| 2026-05-05 17:26 | 62.58457 | 11.33362 | 2059 ft | 11 kts | 298° |
| 2026-05-05 17:26 | 62.58421 | 11.33385 | 2059 ft | 10 kts | 124° |
| 2026-05-05 17:26 | 62.58371 | 11.33516 | 2059 ft | 14 kts | 135° |
| 2026-05-05 17:27 | 62.58284 | 11.33701 | 2059 ft | 22 kts | 136° |
| 2026-05-05 17:27 | 62.58153 | 11.33972 | 2059 ft | 30 kts | 136° |
| 2026-05-05 17:27 | 62.57982 | 11.34327 | 2059 ft | 36 kts | 135° |
| 2026-05-05 17:27 | 62.57807 | 11.34694 | 2152 ft | 34 kts | 136° |
| 2026-05-05 17:28 | 62.57686 | 11.34949 | 2142 ft | 13 kts | 131° |
| 2026-05-05 17:28 | 62.57709 | 11.35097 | 2143 ft | 9 kts | 60° |
| 2026-05-05 17:28 | 62.57698 | 11.35176 | 2143 ft | 5 kts | 134° |
| 2026-05-05 17:28 | 62.57665 | 11.35244 | 2143 ft | 7 kts | 137° |
| 2026-05-05 17:29 | 62.57655 | 11.35311 | 2143 ft | 1 kts | 49° |
| 2026-05-05 17:29 | 62.57659 | 11.35318 | 2143 ft | 0 kts | 47° |
| 2026-05-05 17:29 | 62.57659 | 11.35320 | 2143 ft | 0 kts | 47° |